Time;durP1;ratioP1;P1;durP2;ratioP2;P2;SDS_P1;SDS_P2;PMS_P1;PMS_P2;Temp;Humidity;BMP_temperature;BMP_pressure;BME280_temperature;BME280_humidity;BME280_pressure;Samples;Min_cycle;Max_cycle;Signal;HPM_P1;HPM_P2
2021/10/12 00:01:22;;;;;;;19.48;6.15;;;11.70;95.00;;;;;;5112263;28;20051;-77
2021/10/12 00:03:48;;;;;;;16.65;6.45;;;11.70;95.10;;;;;;5113426;28;20040;-79
2021/10/12 00:06:14;;;;;;;15.43;6.50;;;11.70;95.10;;;;;;5113213;28;20038;-76
2021/10/12 00:08:40;;;;;;;20.75;7.00;;;11.70;95.10;;;;;;5113318;28;20035;-76
2021/10/12 00:11:06;;;;;;;19.67;6.60;;;11.70;95.10;;;;;;5113273;28;20024;-76
2021/10/12 00:13:34;;;;;;;20.08;6.25;;;11.80;95.10;;;;;;5113192;28;20493;-75
2021/10/12 00:16:00;;;;;;;15.35;5.55;;;11.70;95.10;;;;;;5111874;28;20477;-77
2021/10/12 00:18:25;;;;;;;17.25;6.38;;;11.70;95.10;;;;;;5113212;28;20394;-77
2021/10/12 00:20:51;;;;;;;17.25;6.97;;;11.70;95.10;;;;;;5113061;28;20118;-77
2021/10/12 00:23:18;;;;;;;20.00;5.78;;;11.70;95.10;;;;;;5113170;28;20032;-75
2021/10/12 00:25:43;;;;;;;;;;;11.60;95.10;;;;;;5112165;28;20030;-76
2021/10/12 00:28:09;;;;;;;16.88;6.32;;;11.60;95.20;;;;;;5113098;28;19908;-76
2021/10/12 00:30:35;;;;;;;21.45;6.50;;;11.60;95.10;;;;;;5112810;28;20027;-76
2021/10/12 00:33:01;;;;;;;16.20;6.18;;;11.60;95.10;;;;;;5112882;28;20038;-77
2021/10/12 00:35:27;;;;;;;18.30;6.38;;;11.60;95.20;;;;;;5094465;28;20110;-76
2021/10/12 00:37:53;;;;;;;15.93;5.57;;;11.60;95.30;;;;;;5112727;28;20435;-76
2021/10/12 00:40:19;;;;;;;15.35;6.18;;;11.60;95.20;;;;;;5112913;28;20362;-77
2021/10/12 00:42:44;;;;;;;23.85;7.00;;;11.50;95.20;;;;;;5112646;28;20185;-76
2021/10/12 00:45:12;;;;;;;18.92;6.85;;;11.50;95.30;;;;;;5112612;28;20535;-75
2021/10/12 00:47:39;;;;;;;21.08;6.68;;;11.40;95.30;;;;;;5113025;28;20072;-75
2021/10/12 00:50:06;;;;;;;16.48;6.22;;;11.40;95.40;;;;;;5112183;27;20075;-75
2021/10/12 00:52:32;;;;;;;17.15;5.97;;;11.30;95.50;;;;;;5112386;28;20035;-77
2021/10/12 00:54:58;;;;;;;19.08;6.88;;;11.30;95.60;;;;;;5111110;28;20058;-76
2021/10/12 00:57:24;;;;;;;20.63;6.55;;;11.20;95.70;;;;;;5094081;28;20028;-75
2021/10/12 00:59:50;;;;;;;25.10;6.85;;;11.20;95.80;;;;;;5094150;28;20023;-76
2021/10/12 01:02:16;;;;;;;21.25;6.20;;;11.30;95.90;;;;;;5112334;28;20038;-76
2021/10/12 01:04:42;;;;;;;22.17;6.90;;;11.30;96.00;;;;;;5111041;28;20027;-76
2021/10/12 01:07:08;;;;;;;20.20;5.95;;;11.30;96.00;;;;;;5111622;28;20099;-77
2021/10/12 01:09:34;;;;;;;18.10;6.60;;;11.30;96.00;;;;;;5112090;28;20028;-76
2021/10/12 01:12:00;;;;;;;26.02;7.20;;;11.30;96.00;;;;;;5110956;28;20118;-76
2021/10/12 01:14:27;;;;;;;22.58;7.47;;;11.30;96.10;;;;;;5112182;28;20381;-76
2021/10/12 01:16:52;;;;;;;18.52;7.05;;;11.40;96.20;;;;;;5110707;28;20445;-77
2021/10/12 01:19:18;;;;;;;17.55;6.35;;;11.40;96.30;;;;;;5110556;28;20067;-77
2021/10/12 01:21:48;;;;;;;16.35;6.43;;;11.40;96.30;;;;;;5110734;28;20031;-75
2021/10/12 01:24:16;;;;;;;22.25;6.25;;;11.50;96.30;;;;;;5112100;28;20105;-76
2021/10/12 01:26:44;;;;;;;16.65;6.43;;;11.40;96.30;;;;;;5110559;28;20366;-76
2021/10/12 01:29:11;;;;;;;21.15;6.65;;;11.50;96.30;;;;;;5111738;28;20027;-76
2021/10/12 01:31:37;;;;;;;16.75;6.47;;;11.50;96.30;;;;;;5111792;28;20015;-76
2021/10/12 01:34:14;;;;;;;18.58;6.53;;;11.50;96.30;;;;;;5110609;28;20032;-77
2021/10/12 01:36:40;;;;;;;16.40;6.18;;;11.50;96.40;;;;;;5110628;28;20222;-77
2021/10/12 01:39:07;;;;;;;17.10;6.57;;;11.50;96.30;;;;;;5111773;28;20031;-77
2021/10/12 01:41:32;;;;;;;20.00;6.68;;;11.50;96.30;;;;;;5093511;28;20072;-76
2021/10/12 01:43:58;;;;;;;18.50;6.30;;;11.50;96.40;;;;;;5111995;28;20401;-75
2021/10/12 01:46:24;;;;;;;20.67;6.90;;;11.50;96.40;;;;;;5111531;28;20055;-76
2021/10/12 01:48:50;;;;;;;15.55;6.50;;;11.50;96.50;;;;;;5111352;28;20052;-77
2021/10/12 01:51:16;;;;;;;16.00;5.90;;;11.50;96.50;;;;;;5093502;28;20032;-77
2021/10/12 01:53:42;;;;;;;16.33;6.10;;;11.50;96.50;;;;;;5111747;28;20035;-76
2021/10/12 01:56:08;;;;;;;21.88;6.22;;;11.60;96.60;;;;;;5111541;28;20112;-77
2021/10/12 01:58:35;;;;;;;17.40;6.32;;;11.60;96.50;;;;;;5110262;28;20478;-77
2021/10/12 02:01:01;;;;;;;18.98;7.13;;;11.60;96.50;;;;;;5111538;28;20031;-77
2021/10/12 02:03:26;;;;;;;;;;;11.60;96.50;;;;;;5110718;28;20051;-76
2021/10/12 02:05:52;;;;;;;12.60;5.68;;;11.60;96.50;;;;;;5110141;28;19935;-77
2021/10/12 02:08:18;;;;;;;17.83;6.38;;;11.60;96.40;;;;;;5111562;28;20031;-76
2021/10/12 02:10:44;;;;;;;14.93;6.32;;;11.60;96.40;;;;;;5111353;28;20032;-76
2021/10/12 02:13:10;;;;;;;16.20;6.28;;;11.60;96.50;;;;;;5110103;28;20032;-76
2021/10/12 02:15:36;;;;;;;20.85;7.68;;;11.60;96.50;;;;;;5111326;28;20031;-76
2021/10/12 02:18:02;;;;;;;17.15;6.65;;;11.60;96.60;;;;;;5110155;28;20100;-76
2021/10/12 02:20:28;;;;;;;16.05;6.32;;;11.60;96.70;;;;;;5115687;28;20115;-76
2021/10/12 02:22:54;;;;;;;18.60;6.30;;;11.60;96.80;;;;;;5097196;28;20106;-78
2021/10/12 02:25:20;;;;;;;19.77;5.88;;;11.50;96.80;;;;;;5097016;28;20509;-76
2021/10/12 02:27:46;;;;;;;19.25;6.93;;;11.60;96.90;;;;;;5097059;28;20046;-76
2021/10/12 02:30:12;;;;;;;18.17;6.60;;;11.60;97.00;;;;;;5113840;28;20378;-77
2021/10/12 02:32:38;;;;;;;18.48;6.47;;;11.60;97.00;;;;;;5115268;28;20590;-75
2021/10/12 02:35:05;;;;;;;22.63;6.97;;;11.60;97.00;;;;;;5115532;27;20024;-76
2021/10/12 02:37:31;;;;;;;22.20;7.63;;;11.50;97.00;;;;;;5113729;28;20069;-76
2021/10/12 02:39:57;;;;;;;21.65;7.53;;;11.50;97.00;;;;;;5113891;28;20051;-75
2021/10/12 02:42:23;;;;;;;18.45;6.25;;;11.60;97.30;;;;;;5115068;28;20437;-77
2021/10/12 02:44:49;;;;;;;20.85;6.68;;;11.60;97.20;;;;;;5113501;28;20127;-75
2021/10/12 02:47:14;;;;;;;20.65;6.88;;;11.60;97.20;;;;;;5115002;28;20118;-77
2021/10/12 02:49:40;;;;;;;19.88;6.53;;;11.60;97.30;;;;;;5114863;28;20043;-76
2021/10/12 02:52:06;;;;;;;20.10;6.40;;;11.60;97.30;;;;;;5114963;28;20034;-75
2021/10/12 02:54:32;;;;;;;17.65;7.00;;;11.60;97.40;;;;;;5114707;28;20489;-76
2021/10/12 02:56:58;;;;;;;18.95;6.85;;;11.60;97.40;;;;;;5114666;28;20032;-76
2021/10/12 02:59:24;;;;;;;19.75;6.68;;;11.60;97.40;;;;;;5113451;28;20028;-76
2021/10/12 03:01:49;;;;;;;21.58;7.18;;;11.50;97.40;;;;;;5114702;28;20035;-76
2021/10/12 03:04:15;;;;;;;22.23;6.82;;;11.50;97.50;;;;;;5114639;28;20469;-75
2021/10/12 03:06:41;;;;;;;22.83;7.05;;;11.50;97.60;;;;;;5096266;28;20161;-77
2021/10/12 03:09:07;;;;;;;16.08;6.70;;;11.50;97.60;;;;;;5114510;28;20051;-77
2021/10/12 03:11:33;;;;;;;17.05;6.70;;;11.50;97.60;;;;;;5113238;28;20424;-77
2021/10/12 03:13:59;;;;;;;14.52;6.35;;;11.50;97.60;;;;;;5114393;28;20019;-76
2021/10/12 03:16:25;;;;;;;18.13;7.13;;;11.50;97.70;;;;;;5114288;28;20528;-77
2021/10/12 03:18:50;;;;;;;18.40;7.00;;;11.60;97.80;;;;;;5112991;28;20459;-75
2021/10/12 03:21:17;;;;;;;17.08;5.90;;;11.70;97.70;;;;;;5114278;28;20436;-77
2021/10/12 03:23:43;;;;;;;20.92;6.90;;;11.70;97.70;;;;;;5112893;28;20474;-77
2021/10/12 03:26:09;;;;;;;21.23;5.85;;;11.70;97.70;;;;;;5095849;28;20034;-76
2021/10/12 03:28:34;;;;;;;15.48;6.55;;;11.70;97.70;;;;;;5114062;28;20111;-77
2021/10/12 03:31:00;;;;;;;12.85;6.53;;;11.80;97.70;;;;;;5113354;28;20029;-76
2021/10/12 03:33:26;;;;;;;18.67;6.85;;;11.80;97.70;;;;;;5112773;28;20031;-76
2021/10/12 03:35:56;;;;;;;16.50;6.20;;;11.90;97.70;;;;;;5113985;28;20048;-77
2021/10/12 03:38:27;;;;;;;18.95;6.18;;;11.90;97.60;;;;;;5114152;28;20069;-76
2021/10/12 03:40:54;;;;;;;16.35;5.63;;;11.90;97.60;;;;;;5113872;28;20030;-78
2021/10/12 03:43:20;;;;;;;18.25;6.43;;;11.90;97.70;;;;;;5112476;28;20560;-76
2021/10/12 03:45:46;;;;;;;18.52;5.72;;;12.00;97.70;;;;;;5113735;28;20439;-77
2021/10/12 03:48:12;;;;;;;19.83;5.60;;;12.00;97.70;;;;;;5112247;28;20076;-77
2021/10/12 03:50:38;;;;;;;;;;;12.00;97.90;;;;;;5114094;28;20023;-77
2021/10/12 03:53:04;;;;;;;14.70;5.25;;;12.00;97.60;;;;;;5112425;28;19904;-77
2021/10/12 03:55:30;;;;;;;14.82;5.85;;;12.10;97.50;;;;;;5113467;28;20428;-75
2021/10/12 03:57:56;;;;;;;16.92;6.30;;;12.10;97.50;;;;;;5113396;28;20020;-78
2021/10/12 04:00:22;;;;;;;13.50;5.50;;;12.00;97.50;;;;;;5113264;28;20417;-76
2021/10/12 04:02:48;;;;;;;15.13;5.28;;;12.10;97.60;;;;;;5112152;28;20123;-78
2021/10/12 04:05:15;;;;;;;18.08;6.05;;;12.00;97.60;;;;;;5113433;28;20103;-77
2021/10/12 04:07:41;;;;;;;18.25;6.05;;;12.00;97.60;;;;;;5112119;28;20070;-77
2021/10/12 04:10:07;;;;;;;11.63;5.22;;;12.00;97.60;;;;;;5111929;28;20027;-77
2021/10/12 04:12:33;;;;;;;13.80;5.25;;;12.00;97.70;;;;;;5113336;28;20035;-76
2021/10/12 04:14:59;;;;;;;15.52;6.45;;;12.10;97.70;;;;;;5111849;28;20084;-77
2021/10/12 04:17:25;;;;;;;11.95;5.45;;;12.10;97.70;;;;;;5113167;28;20039;-78
2021/10/12 04:19:50;;;;;;;14.57;5.70;;;12.20;97.70;;;;;;5113160;28;20108;-77
2021/10/12 04:22:16;;;;;;;16.60;5.72;;;12.20;97.70;;;;;;5113122;28;20466;-78
2021/10/12 04:24:42;;;;;;;14.82;5.75;;;12.20;97.60;;;;;;5113112;28;20038;-78
2021/10/12 04:27:08;;;;;;;16.98;5.57;;;12.20;97.60;;;;;;5112970;28;20043;-75
2021/10/12 04:29:34;;;;;;;11.40;5.28;;;12.20;97.60;;;;;;5094446;28;20122;-78
2021/10/12 04:32:00;;;;;;;17.08;5.45;;;12.20;97.50;;;;;;5112947;28;20024;-77
2021/10/12 04:34:29;;;;;;;14.75;5.50;;;12.20;97.50;;;;;;5111646;28;20319;-77
2021/10/12 04:36:56;;;;;;;15.90;5.18;;;12.20;97.60;;;;;;5111443;28;20024;-77
2021/10/12 04:39:22;;;;;;;13.20;5.25;;;12.10;97.50;;;;;;5112505;28;20066;-77
2021/10/12 04:41:49;;;;;;;16.38;5.30;;;12.10;97.50;;;;;;5110780;28;20485;-77
2021/10/12 04:44:15;;;;;;;18.50;5.75;;;12.00;97.50;;;;;;5112589;28;20039;-77
2021/10/12 04:46:40;;;;;;;16.50;5.60;;;12.00;97.50;;;;;;5111275;28;20035;-78
2021/10/12 04:49:07;;;;;;;16.30;5.60;;;11.90;97.50;;;;;;5111147;28;20058;-78
2021/10/12 04:51:33;;;;;;;;;;;11.90;97.60;;;;;;5111510;28;20028;-78
2021/10/12 04:53:58;;;;;;;14.48;4.88;;;11.80;97.60;;;;;;5112385;28;19910;-77
2021/10/12 04:56:24;;;;;;;12.80;5.10;;;11.80;97.50;;;;;;5094218;28;20024;-77
2021/10/12 04:58:50;;;;;;;14.02;5.07;;;11.70;97.50;;;;;;5112700;27;20027;-77
2021/10/12 05:01:16;;;;;;;16.63;5.47;;;11.70;97.60;;;;;;5093979;28;20024;-77
2021/10/12 05:03:42;;;;;;;18.48;6.35;;;11.70;97.60;;;;;;5112344;28;20422;-77
2021/10/12 05:06:07;;;;;;;13.02;4.57;;;11.60;97.60;;;;;;5112167;28;20031;-77
2021/10/12 05:08:33;;;;;;;15.00;5.43;;;11.50;97.60;;;;;;5112169;28;20028;-76
2021/10/12 05:10:59;;;;;;;14.68;4.72;;;11.50;97.70;;;;;;5112060;28;20031;-77
2021/10/12 05:13:25;;;;;;;16.30;4.82;;;11.40;97.80;;;;;;5112105;28;20530;-76
2021/10/12 05:15:51;;;;;;;15.50;4.72;;;11.40;97.80;;;;;;5111934;28;20473;-76
2021/10/12 05:18:21;;;;;;;14.38;4.70;;;11.40;97.90;;;;;;5112020;28;20039;-76
2021/10/12 05:20:47;;;;;;;15.77;4.68;;;11.40;97.90;;;;;;5112005;28;20030;-77
2021/10/12 05:23:14;;;;;;;14.10;4.57;;;11.30;98.00;;;;;;5111911;28;20153;-76
2021/10/12 05:25:40;;;;;;;;;;;11.30;98.10;;;;;;5112081;28;20095;-77
2021/10/12 05:28:07;;;;;;;10.93;4.30;;;11.30;98.10;;;;;;5111854;28;20068;-78
2021/10/12 05:30:39;;;;;;;11.75;4.25;;;11.30;98.00;;;;;;5111554;28;20028;-77
2021/10/12 05:33:06;;;;;;;13.35;4.78;;;11.30;98.00;;;;;;5110576;28;20119;-77
2021/10/12 05:35:31;;;;;;;16.33;4.97;;;11.20;98.00;;;;;;5110544;28;20043;-77
2021/10/12 05:37:57;;;;;;;21.58;11.65;;;11.20;98.00;;;;;;5076503;28;20043;-76
2021/10/12 05:40:23;;;;;;;18.83;10.50;;;11.20;98.10;;;;;;5111714;28;20028;-76
2021/10/12 05:42:48;;;;;;;17.00;5.68;;;11.10;98.10;;;;;;5111627;28;20060;-78
2021/10/12 05:45:14;;;;;;;14.80;5.03;;;11.10;98.20;;;;;;5093367;28;20028;-77
2021/10/12 05:47:40;;;;;;;17.88;5.50;;;11.10;98.20;;;;;;5076520;28;20023;-77
2021/10/12 05:50:06;;;;;;;12.55;4.38;;;11.10;98.30;;;;;;5110082;28;20058;-77
2021/10/12 05:52:35;;;;;;;22.45;5.90;;;11.10;98.30;;;;;;5110337;28;20034;-78
2021/10/12 05:55:08;;;;;;;13.32;4.72;;;11.20;98.30;;;;;;5099779;28;20058;-77
2021/10/12 05:58:05;;;;;;;16.42;4.93;;;11.10;98.30;;;;;;5118366;27;20028;-75
2021/10/12 06:00:25;;;;;;;10.77;4.28;;;11.10;98.30;;;;;;5118618;28;20042;-77
2021/10/12 06:02:51;;;;;;;11.40;4.25;;;11.20;98.40;;;;;;5118340;27;20465;-78
2021/10/12 06:05:16;;;;;;;13.02;4.25;;;11.20;98.30;;;;;;5116950;28;20040;-77
2021/10/12 06:07:42;;;;;;;16.27;4.80;;;11.20;98.40;;;;;;5118295;28;20031;-77
2021/10/12 06:10:08;;;;;;;16.33;4.68;;;11.30;98.40;;;;;;5118139;27;20042;-77
2021/10/12 06:12:33;;;;;;;13.45;5.07;;;11.30;98.50;;;;;;5116611;28;20110;-76
2021/10/12 06:14:59;;;;;;;10.85;4.15;;;11.40;98.50;;;;;;5118010;27;20027;-76
2021/10/12 06:17:25;;;;;;;12.57;4.07;;;11.50;98.40;;;;;;5099810;28;20072;-76
2021/10/12 06:19:51;;;;;;;10.90;4.13;;;11.50;98.40;;;;;;5099639;28;20489;-76
2021/10/12 06:22:16;;;;;;;19.00;5.75;;;11.60;98.30;;;;;;5099961;28;20108;-77
2021/10/12 06:24:42;;;;;;;17.08;5.20;;;11.60;98.30;;;;;;5100204;28;20037;-78
2021/10/12 06:27:08;;;;;;;10.80;3.60;;;11.60;98.30;;;;;;5116796;28;20031;-77
2021/10/12 06:29:33;;;;;;;11.60;3.88;;;11.60;98.30;;;;;;5099764;28;20071;-76
2021/10/12 06:31:59;;;;;;;13.32;3.80;;;11.60;98.30;;;;;;5116864;28;20023;-76
2021/10/12 06:34:24;;;;;;;13.38;4.25;;;11.70;98.30;;;;;;5117824;27;20492;-77
2021/10/12 06:36:51;;;;;;;14.70;4.18;;;11.70;98.30;;;;;;5116859;28;20032;-77
2021/10/12 06:39:16;;;;;;;9.90;3.45;;;11.70;98.30;;;;;;5117816;28;20034;-77
2021/10/12 06:41:42;;;;;;;11.98;3.78;;;11.80;98.30;;;;;;5116614;28;20028;-77
2021/10/12 06:44:09;;;;;;;12.32;3.83;;;11.90;98.30;;;;;;5099418;28;20141;-77
2021/10/12 06:46:34;;;;;;;11.40;4.50;;;11.90;98.30;;;;;;5116847;27;20028;-77
2021/10/12 06:49:00;;;;;;;19.73;4.00;;;11.90;98.20;;;;;;5116883;27;20150;-78
2021/10/12 06:51:26;;;;;;;11.07;4.07;;;12.00;98.20;;;;;;5117333;27;20028;-76
2021/10/12 06:53:52;;;;;;;16.63;5.90;;;12.00;98.10;;;;;;5117357;27;20473;-76
2021/10/12 06:56:17;;;;;;;10.02;3.15;;;12.10;98.10;;;;;;5115544;28;20504;-76
2021/10/12 06:58:44;;;;;;;12.32;4.00;;;12.10;98.30;;;;;;5118463;27;20031;-75
2021/10/12 07:01:10;;;;;;;10.20;3.80;;;12.10;98.00;;;;;;5118047;28;20569;-76
2021/10/12 07:03:35;;;;;;;12.15;3.67;;;12.10;98.00;;;;;;5117121;27;20110;-76
2021/10/12 07:06:01;;;;;;;9.00;3.92;;;12.10;98.10;;;;;;5112076;28;20162;-75
2021/10/12 07:08:27;;;;;;;14.30;3.40;;;12.10;98.20;;;;;;5114766;28;20108;-75
2021/10/12 07:10:55;;;;;;;10.25;4.00;;;12.20;98.00;;;;;;5115512;27;20031;-76
2021/10/12 07:13:28;;;;;;;12.73;4.63;;;12.20;98.00;;;;;;5112625;28;20028;-76
2021/10/12 07:15:54;;;;;;;19.48;5.05;;;12.20;98.00;;;;;;5112881;28;20097;-77
2021/10/12 07:18:20;;;;;;;10.52;4.57;;;12.30;98.00;;;;;;5114161;28;20429;-76
2021/10/12 07:20:46;;;;;;;15.10;4.05;;;12.40;98.00;;;;;;5112272;28;20032;-76
2021/10/12 07:23:11;;;;;;;15.02;3.45;;;12.40;98.00;;;;;;5114231;28;20362;-78
2021/10/12 07:25:37;;;;;;;9.95;3.35;;;12.50;97.90;;;;;;5113483;28;20032;-76
2021/10/12 07:28:03;;;;;;;13.82;4.68;;;12.50;97.90;;;;;;5113636;28;20031;-78
2021/10/12 07:30:28;;;;;;;17.52;4.32;;;12.50;97.80;;;;;;5113111;28;20355;-77
2021/10/12 07:32:54;;;;;;;8.63;3.75;;;12.60;97.80;;;;;;5112611;28;20098;-77
2021/10/12 07:35:20;;;;;;;12.18;3.55;;;12.60;97.80;;;;;;5113852;28;20350;-76
2021/10/12 07:37:45;;;;;;;7.97;3.00;;;12.70;97.80;;;;;;5112920;28;20077;-77
2021/10/12 07:40:12;;;;;;;13.85;3.20;;;12.70;97.80;;;;;;5114398;28;20040;-75
2021/10/12 07:42:38;;;;;;;11.90;3.35;;;12.80;97.80;;;;;;5113548;28;20031;-76
2021/10/12 07:45:04;;;;;;;;;;;12.80;97.70;;;;;;5112112;28;20042;-77
2021/10/12 07:47:30;;;;;;;12.80;3.35;;;12.90;97.70;;;;;;5113436;28;20354;-76
2021/10/12 07:49:56;;;;;;;7.70;3.28;;;12.90;97.60;;;;;;5094707;28;20436;-76
2021/10/12 07:52:22;;;;;;;8.18;3.25;;;12.90;97.60;;;;;;5113209;28;20389;-76
2021/10/12 07:54:51;;;;;;;10.13;3.22;;;13.00;97.60;;;;;;5111273;28;20212;-76
2021/10/12 07:57:18;;;;;;;12.30;3.30;;;13.00;97.60;;;;;;5111427;28;20039;-77
2021/10/12 07:59:44;;;;;;;6.07;3.13;;;13.10;97.60;;;;;;5113103;28;20072;-76
2021/10/12 08:02:14;;;;;;;;;;;13.10;97.50;;;;;;5095302;28;20024;-77
2021/10/12 08:04:43;;;;;;;9.80;3.33;;;13.20;97.60;;;;;;5111409;28;19903;-76
2021/10/12 08:07:09;;;;;;;9.98;3.65;;;13.30;97.50;;;;;;5094264;28;20054;-76
2021/10/12 08:09:36;;;;;;;10.32;3.50;;;13.30;97.50;;;;;;5113122;28;20492;-76
2021/10/12 08:12:07;;;;;;;9.38;3.30;;;13.40;97.50;;;;;;5113183;28;20027;-75
2021/10/12 08:14:38;;;;;;;8.88;3.10;;;13.50;97.30;;;;;;5112763;28;20027;-74
2021/10/12 08:17:04;;;;;;;11.90;3.90;;;13.60;97.20;;;;;;5111266;28;20027;-76
2021/10/12 08:19:30;;;;;;;9.52;3.60;;;13.60;97.10;;;;;;5111858;28;20024;-76
2021/10/12 08:21:56;;;;;;;9.00;3.30;;;13.60;97.10;;;;;;5112912;28;20024;-76
2021/10/12 08:24:22;;;;;;;8.85;3.15;;;13.60;97.00;;;;;;5112346;28;20031;-77
2021/10/12 08:26:49;;;;;;;12.82;3.63;;;13.60;97.00;;;;;;5112639;28;20461;-76
2021/10/12 08:29:15;;;;;;;7.00;3.20;;;13.60;97.00;;;;;;5112720;28;20035;-77
2021/10/12 08:31:41;;;;;;;9.82;3.70;;;13.60;97.00;;;;;;5111622;28;20488;-72
2021/10/12 08:34:07;;;;;;;9.57;2.72;;;13.70;97.10;;;;;;5113449;28;20027;-74
2021/10/12 08:36:32;;;;;;;8.82;3.40;;;13.80;97.10;;;;;;5093980;28;20034;-76
2021/10/12 08:38:58;;;;;;;10.93;2.83;;;13.90;97.00;;;;;;5112787;28;20045;-75
2021/10/12 08:41:30;;;;;;;8.60;3.22;;;14.00;97.00;;;;;;5111243;28;20079;-76
2021/10/12 08:43:57;;;;;;;11.13;2.90;;;14.20;96.80;;;;;;5112159;28;20024;-78
2021/10/12 08:46:27;;;;;;;12.27;3.80;;;14.20;96.70;;;;;;5110867;28;20023;-77
2021/10/12 08:48:57;;;;;;;9.93;3.13;;;14.30;96.50;;;;;;5108543;28;20097;-76
2021/10/12 08:51:24;;;;;;;7.57;2.47;;;14.40;96.30;;;;;;5111858;28;20055;-74
2021/10/12 08:53:50;;;;;;;8.73;2.45;;;14.40;96.30;;;;;;5111903;28;20030;-75
2021/10/12 08:56:16;;;;;;;7.95;2.70;;;14.40;96.20;;;;;;5111625;27;20015;-76
2021/10/12 08:58:42;;;;;;;11.43;2.70;;;14.50;96.10;;;;;;5110789;28;20032;-75
2021/10/12 09:01:09;;;;;;;9.07;3.40;;;14.50;96.00;;;;;;5112061;28;20035;-75
2021/10/12 09:06:12;;;;;;;10.68;2.95;;;14.70;96.00;;;;;;5101404;28;20027;-75
2021/10/12 09:08:39;;;;;;;8.02;2.58;;;14.80;95.90;;;;;;5098207;27;20032;-74
2021/10/12 09:11:21;;;;;;;9.18;2.70;;;14.90;95.90;;;;;;5100511;28;20024;-75
2021/10/12 09:13:50;;;;;;;11.35;3.20;;;15.10;95.80;;;;;;5098110;28;20027;-76
2021/10/12 09:16:16;;;;;;;6.50;2.20;;;15.20;95.60;;;;;;5101212;28;20024;-76
2021/10/12 09:18:52;;;;;;;7.97;2.53;;;15.30;95.50;;;;;;5099724;28;20016;-77
2021/10/12 09:21:26;;;;;;;10.40;3.00;;;15.40;95.30;;;;;;5098665;28;20378;-75
2021/10/12 09:24:08;;;;;;;9.73;2.85;;;15.50;95.20;;;;;;5094012;28;20032;-76
2021/10/12 09:26:39;;;;;;;13.45;4.35;;;15.50;95.10;;;;;;5099767;28;20064;-76
2021/10/12 09:29:09;;;;;;;8.43;2.20;;;15.50;95.00;;;;;;5098989;28;20137;-76
2021/10/12 09:31:41;;;;;;;11.25;4.32;;;15.60;94.90;;;;;;5094125;28;20019;-76
2021/10/12 09:34:09;;;;;;;12.82;2.47;;;15.60;94.70;;;;;;5101969;28;20022;-77
2021/10/12 09:36:37;;;;;;;11.20;1.90;;;15.60;94.60;;;;;;5109320;28;20035;-78
2021/10/12 09:39:06;;;;;;;8.90;2.15;;;15.70;94.50;;;;;;5101732;28;20370;-76
2021/10/12 09:41:31;;;;;;;8.15;2.70;;;15.70;94.40;;;;;;5103115;28;20027;-76
2021/10/12 09:44:17;;;;;;;9.65;2.90;;;15.80;94.50;;;;;;5101259;28;20547;-76
2021/10/12 09:46:48;;;;;;;10.80;3.63;;;15.90;94.30;;;;;;5104565;28;20058;-76
2021/10/12 09:49:24;;;;;;;7.80;3.00;;;15.90;94.10;;;;;;5107090;28;20196;-75
2021/10/12 09:52:13;;;;;;;8.25;3.15;;;15.80;94.00;;;;;;5099313;28;20046;-77
2021/10/12 09:54:55;;;;;;;14.80;4.22;;;15.80;94.00;;;;;;5099861;28;20028;-77
2021/10/12 09:57:23;;;;;;;11.43;3.40;;;15.70;94.10;;;;;;5104583;28;20039;-76
2021/10/12 09:59:50;;;;;;;7.88;2.03;;;15.80;94.30;;;;;;5106561;28;20118;-76
2021/10/12 10:02:19;;;;;;;5.50;1.63;;;15.80;94.10;;;;;;5080355;28;20035;-77
2021/10/12 10:04:45;;;;;;;7.32;2.28;;;15.90;94.00;;;;;;5098885;28;20086;-74
2021/10/12 10:07:26;;;;;;;9.32;3.03;;;16.00;93.90;;;;;;5099566;28;20036;-75
2021/10/12 10:09:57;;;;;;;10.82;2.92;;;15.90;93.80;;;;;;5098475;28;20028;-75
2021/10/12 10:12:23;;;;;;;8.02;2.63;;;15.90;93.70;;;;;;5096324;28;20042;-75
2021/10/12 10:14:49;;;;;;;7.85;1.60;;;15.90;93.80;;;;;;5101749;28;20020;-74
2021/10/12 10:17:15;;;;;;;5.63;1.60;;;15.90;93.60;;;;;;5083463;28;20028;-75
2021/10/12 10:19:44;;;;;;;13.02;3.38;;;16.00;93.70;;;;;;5097001;28;20032;-76
2021/10/12 10:22:38;;;;;;;8.73;1.60;;;16.00;93.60;;;;;;5105051;28;20099;-74
2021/10/12 10:25:30;;;;;;;8.18;2.63;;;16.10;93.60;;;;;;5103283;28;20130;-75
2021/10/12 10:28:27;;;;;;;11.73;3.38;;;16.20;93.50;;;;;;5103368;28;20024;-76
2021/10/12 10:30:54;;;;;;;7.63;2.10;;;16.30;93.30;;;;;;5088139;28;20034;-76
2021/10/12 10:33:39;;;;;;;8.73;2.00;;;16.40;93.20;;;;;;5104859;28;20087;-79
2021/10/12 10:36:06;;;;;;;9.40;2.45;;;16.30;93.10;;;;;;5102172;28;20023;-75
2021/10/12 10:38:44;;;;;;;12.18;2.42;;;16.30;93.10;;;;;;5104466;28;20016;-77
2021/10/12 10:41:14;;;;;;;14.68;4.43;;;16.30;93.00;;;;;;5106197;28;20020;-78
2021/10/12 10:43:54;;;;;;;9.63;3.10;;;16.40;93.20;;;;;;5114531;28;20030;-75
2021/10/12 10:46:35;;;;;;;11.30;2.10;;;16.40;93.00;;;;;;5110580;28;20040;-76
2021/10/12 10:49:13;;;;;;;13.73;4.10;;;16.50;92.90;;;;;;5106186;28;20066;-78
2021/10/12 10:51:47;;;;;;;9.52;2.47;;;16.60;92.80;;;;;;5106149;28;20388;-76
2021/10/12 10:57:18;;;;;;;8.63;2.63;;;16.60;92.70;;;;;;5104297;28;20076;-77
2021/10/12 10:59:45;;;;;;;10.07;1.88;;;16.70;92.60;;;;;;5105238;28;20016;-77
2021/10/12 11:02:26;;;;;;;8.00;1.35;;;16.70;92.60;;;;;;5109301;28;20024;-78
2021/10/12 11:04:53;;;;;;;12.73;3.72;;;16.70;92.60;;;;;;5101389;28;20457;-76
2021/10/12 11:07:24;;;;;;;6.63;2.25;;;16.90;92.60;;;;;;5113209;28;20076;-77
2021/10/12 11:09:50;;;;;;;6.43;2.15;;;16.90;92.40;;;;;;5101253;28;20028;-75
2021/10/12 11:12:27;;;;;;;4.97;1.50;;;17.00;92.30;;;;;;5106257;28;20020;-78
2021/10/12 11:15:02;;;;;;;6.05;1.98;;;17.00;92.20;;;;;;5101295;28;20082;-76
2021/10/12 11:17:28;;;;;;;5.63;1.35;;;17.00;92.10;;;;;;5096633;28;20054;-76
2021/10/12 11:20:07;;;;;;;6.07;2.40;;;17.00;92.10;;;;;;5069873;28;20115;-75
2021/10/12 11:22:40;;;;;;;6.97;1.63;;;17.00;92.00;;;;;;5106461;28;20382;-75
2021/10/12 11:25:06;;;;;;;4.90;1.70;;;17.00;92.00;;;;;;5107142;28;20107;-76
2021/10/12 11:27:42;;;;;;;10.15;1.77;;;17.00;92.00;;;;;;5109774;28;20039;-73
2021/10/12 11:30:14;;;;;;;10.10;2.42;;;17.00;91.90;;;;;;5101951;28;20042;-72
2021/10/12 11:32:40;;;;;;;8.50;2.90;;;17.00;92.00;;;;;;5100792;28;20047;-76
2021/10/12 11:35:10;;;;;;;7.78;2.38;;;17.10;92.10;;;;;;5108722;28;20047;-76
2021/10/12 11:37:53;;;;;;;7.43;3.45;;;17.10;92.00;;;;;;5105398;28;20034;-77
2021/10/12 11:40:23;;;;;;;10.77;2.38;;;17.20;91.90;;;;;;5101708;28;20066;-73
2021/10/12 11:42:49;;;;;;;7.90;2.40;;;17.20;91.80;;;;;;5108077;28;20035;-76
2021/10/12 11:45:15;;;;;;;;;;;17.30;91.70;;;;;;5104365;28;20031;-77
2021/10/12 11:47:42;;;;;;;8.48;2.35;;;17.30;91.70;;;;;;5100884;28;19908;-74
2021/10/12 11:50:13;;;;;;;6.78;2.40;;;17.40;91.60;;;;;;5111242;28;20067;-74
2021/10/12 11:52:43;;;;;;;5.88;1.92;;;17.40;91.50;;;;;;5101772;28;20036;-73
2021/10/12 11:55:11;;;;;;;6.05;1.63;;;17.30;91.50;;;;;;5105768;28;20028;-73
2021/10/12 11:57:38;;;;;;;7.15;1.70;;;17.30;91.40;;;;;;5097419;28;20038;-76
2021/10/12 12:00:05;;;;;;;8.55;3.10;;;17.30;91.30;;;;;;5104842;28;20407;-73
2021/10/12 12:02:31;;;;;;;12.23;4.20;;;17.30;91.30;;;;;;5103364;28;20020;-76
2021/10/12 12:05:00;;;;;;;6.95;1.80;;;17.30;91.20;;;;;;5106727;28;20089;-75
2021/10/12 12:07:28;;;;;;;4.72;1.80;;;17.30;91.20;;;;;;5106042;28;20397;-73
2021/10/12 12:09:55;;;;;;;4.15;1.73;;;17.30;91.10;;;;;;5082700;28;20145;-77
2021/10/12 12:12:21;;;;;;;5.95;2.13;;;17.30;91.10;;;;;;5104531;28;20032;-77
2021/10/12 12:14:52;;;;;;;15.13;2.63;;;17.30;91.10;;;;;;5101879;28;20069;-75
2021/10/12 12:17:21;;;;;;;5.80;1.77;;;17.30;91.10;;;;;;5105879;28;20024;-76
2021/10/12 12:19:49;;;;;;;6.88;2.30;;;17.30;91.10;;;;;;5103312;28;20145;-76
2021/10/12 12:22:16;;;;;;;6.03;2.30;;;17.30;91.00;;;;;;5105518;28;20047;-76
2021/10/12 12:25:15;;;;;;;6.10;2.38;;;17.20;91.00;;;;;;5098676;28;20066;-76
2021/10/12 12:28:00;;;;;;;8.30;2.63;;;17.20;90.90;;;;;;5108757;28;20031;-76
2021/10/12 12:30:36;;;;;;;6.40;3.03;;;17.20;90.90;;;;;;5101995;28;20020;-77
2021/10/12 12:33:02;;;;;;;8.70;2.83;;;17.20;91.00;;;;;;5103341;28;20023;-75
2021/10/12 12:35:36;;;;;;;6.93;2.28;;;17.20;91.10;;;;;;5104454;28;20024;-72
2021/10/12 12:38:03;;;;;;;8.57;2.92;;;17.30;91.20;;;;;;5104898;28;20474;-80
2021/10/12 12:40:31;;;;;;;6.20;2.20;;;17.50;91.10;;;;;;5102953;28;20117;-77
2021/10/12 12:42:57;;;;;;;6.70;2.38;;;17.60;91.10;;;;;;5108675;28;20062;-79
2021/10/12 12:45:25;;;;;;;6.28;3.53;;;17.70;90.70;;;;;;5105953;28;20498;-78
2021/10/12 12:48:00;;;;;;;11.57;3.40;;;17.80;90.60;;;;;;5105982;28;20114;-79
2021/10/12 12:50:34;;;;;;;6.15;3.15;;;17.90;90.50;;;;;;5099036;28;20048;-78
2021/10/12 12:53:02;;;;;;;9.13;3.83;;;18.00;90.40;;;;;;5105445;28;20380;-77